»·PEaware :: ASA180 KGPI-KSEA

ASA180 :: KGPI-KSEA

FLIGHT INFORMATION

Flight Status: Arrived
Operator:
Alaska Airlines
More flights by this operator :: More flights under this callsign
Pilot: Etienne B. (28927)
Aircraft: AIRBUS A320
(A320)
More flights by this aircraft type
Origin: KGPI Glacier Park Intl
United States
Destination: KSEA Seattle-Tacoma Intl
United States
More flights between these airports :: More routes between these airports
Route: +KILLY1 EYESE TEMPL GLASR1
File this flight plan on PilotEdge
Remarks: RMK / SIMBRIEF
Altitude:
(Current/Filed)
36,000ft
Speed:
(Current/Filed)
447kts
Departed: 24-Apr-20 03:53 PM
Arrived: 24-Apr-20 04:59 PM
Distance/Time
Traveled:
328nm/1:06
Distance/Time
To Go:
Arrived

Flight Plot

Page will automatically refresh every two minutes.

Flight plan parsing failed; only flown route is shown


Map Options




Map Legend


Flown Route
Filed Route
Departure Airport
Arrival Airport
Navaid (VOR, NDB)
Fix

Horizontal Profiles

Position Reports

Time Latitude Longitude Heading Altitude Ground
Speed
24-Apr-20 15:25 48.307792 -114.253354 125 2971ft 0kts
24-Apr-20 15:26 48.307792 -114.253354 125 2971ft 0kts
24-Apr-20 15:27 48.307792 -114.253354 125 2971ft 0kts
24-Apr-20 15:28 48.307792 -114.253354 125 2971ft 0kts
24-Apr-20 15:29 48.307792 -114.253354 125 2971ft 0kts
24-Apr-20 15:30 48.307792 -114.253354 125 2971ft 0kts
24-Apr-20 15:31 48.307792 -114.253354 125 2971ft 0kts
24-Apr-20 15:32 48.307792 -114.253354 125 2971ft 0kts
24-Apr-20 15:33 48.307792 -114.253354 125 2971ft 0kts
24-Apr-20 15:34 48.307792 -114.253354 125 2971ft 0kts
24-Apr-20 15:35 48.307792 -114.253354 125 2971ft 0kts
24-Apr-20 15:36 48.307792 -114.253354 125 2971ft 0kts
24-Apr-20 15:37 48.307792 -114.253354 125 2971ft 0kts
24-Apr-20 15:38 48.307792 -114.253354 125 2971ft 0kts
24-Apr-20 15:39 48.307792 -114.253354 125 2971ft 0kts
24-Apr-20 15:40 48.307954 -114.253697 125 2971ft 2kts
24-Apr-20 15:41 48.308479 -114.253972 197 2972ft 2kts
24-Apr-20 15:42 48.308656 -114.253836 215 2972ft 0kts
24-Apr-20 15:43 48.308656 -114.253836 215 2972ft 0kts
24-Apr-20 15:44 48.308656 -114.253836 215 2972ft 0kts
24-Apr-20 15:45 48.308451 -114.254035 212 2972ft 1kts
24-Apr-20 15:46 48.308130 -114.255812 228 2971ft 5kts
24-Apr-20 15:47 48.304793 -114.259324 214 2969ft 17kts
24-Apr-20 15:48 48.300727 -114.263591 214 2967ft 18kts
24-Apr-20 15:49 48.298527 -114.265934 232 2965ft 0kts
24-Apr-20 15:50 48.298527 -114.265934 232 2965ft 0kts
24-Apr-20 15:51 48.298939 -114.267318 356 2965ft 15kts
24-Apr-20 15:52 48.322432 -114.242330 35 3737ft 180kts
24-Apr-20 15:53 48.371087 -114.229793 317 6635ft 194kts
24-Apr-20 15:54 48.406900 -114.299343 302 8867ft 246kts
24-Apr-20 15:55 48.435880 -114.389799 263 12238ft 249kts
24-Apr-20 15:56 48.390828 -114.476491 229 14415ft 298kts
24-Apr-20 15:57 48.310860 -114.532051 186 15665ft 371kts
24-Apr-20 15:58 48.203261 -114.542680 196 17240ft 394kts
24-Apr-20 15:59 48.132438 -114.649936 256 19075ft 380kts
24-Apr-20 16:01 48.105002 -114.804136 256 20854ft 388kts
24-Apr-20 16:02 48.076787 -114.962195 257 22461ft 396kts
24-Apr-20 16:03 48.047836 -115.123426 256 23790ft 407kts
24-Apr-20 16:04 48.017908 -115.288702 255 24992ft 417kts
24-Apr-20 16:05 47.997496 -115.459900 266 26233ft 422kts
24-Apr-20 16:06 47.988795 -115.635477 266 27316ft 428kts
24-Apr-20 16:07 47.979707 -115.813284 265 28334ft 434kts
24-Apr-20 16:08 47.970218 -115.993558 266 29215ft 439kts
24-Apr-20 16:09 47.960393 -116.174529 266 30348ft 435kts
24-Apr-20 16:10 47.950477 -116.351866 267 31689ft 425kts
24-Apr-20 16:11 47.940474 -116.526539 268 32650ft 423kts
24-Apr-20 16:12 47.930258 -116.700185 267 33571ft 421kts
24-Apr-20 16:13 47.919781 -116.873716 268 34442ft 419kts
24-Apr-20 16:14 47.909264 -117.042818 270 35914ft 399kts
24-Apr-20 16:15 47.899144 -117.202487 271 36225ft 386kts
24-Apr-20 16:16 47.888789 -117.363155 271 36234ft 389kts
24-Apr-20 16:16 47.879925 -117.497378 271 36240ft 390kts
24-Apr-20 16:18 47.867238 -117.685343 270 36242ft 392kts
24-Apr-20 16:19 47.856079 -117.846942 270 36245ft 392kts
24-Apr-20 16:19 47.846618 -117.981355 270 36239ft 392kts
24-Apr-20 16:20 47.837793 -118.104688 270 36224ft 392kts
24-Apr-20 16:21 47.826043 -118.266065 270 36226ft 391kts
24-Apr-20 16:22 47.814120 -118.426804 270 36215ft 391kts
24-Apr-20 16:23 47.803802 -118.587323 271 36209ft 390kts
24-Apr-20 16:24 47.790440 -118.744852 269 36203ft 392kts
24-Apr-20 16:25 47.777297 -118.905904 270 36217ft 390kts
24-Apr-20 16:26 47.764651 -119.062806 270 36206ft 377kts
24-Apr-20 16:27 47.752097 -119.217510 271 36200ft 378kts
24-Apr-20 16:28 47.739296 -119.372438 271 36196ft 378kts
24-Apr-20 16:29 47.733287 -119.526435 282 36200ft 368kts
24-Apr-20 16:30 47.745118 -119.675306 281 36199ft 368kts
24-Apr-20 16:31 47.756909 -119.826528 282 36199ft 369kts
24-Apr-20 16:32 47.768489 -119.977649 281 35815ft 366kts
24-Apr-20 16:33 47.779873 -120.128584 281 34836ft 370kts
24-Apr-20 16:34 47.791153 -120.281044 281 33878ft 372kts
24-Apr-20 16:35 47.802287 -120.434265 281 32909ft 377kts
24-Apr-20 16:36 47.813398 -120.590177 281 31936ft 382kts
24-Apr-20 16:37 47.824288 -120.746034 279 30985ft 387kts
24-Apr-20 16:38 47.835196 -120.905721 279 29537ft 383kts
24-Apr-20 16:39 47.846183 -121.068838 275 22654ft 421kts
24-Apr-20 16:40 47.856987 -121.234708 274 21567ft 391kts
24-Apr-20 16:41 47.867356 -121.396051 274 20388ft 385kts
24-Apr-20 16:42 47.877015 -121.550397 274 18197ft 366kts
24-Apr-20 16:43 47.875301 -121.698486 248 16146ft 371kts
24-Apr-20 16:44 47.815004 -121.800723 225 16034ft 309kts
24-Apr-20 16:45 47.754520 -121.891515 248 16030ft 306kts
24-Apr-20 16:46 47.767126 -122.003848 287 14269ft 275kts
24-Apr-20 16:47 47.792072 -122.102971 287 12685ft 246kts
24-Apr-20 16:48 47.815547 -122.199676 287 10421ft 251kts
24-Apr-20 16:49 47.829146 -122.297999 241 8253ft 242kts
24-Apr-20 16:50 47.772200 -122.310518 171 6792ft 231kts
24-Apr-20 16:51 47.712239 -122.305476 183 6037ft 195kts
24-Apr-20 16:52 47.655613 -122.304928 182 4189ft 199kts
24-Apr-20 16:53 47.607105 -122.306577 184 3166ft 160kts
24-Apr-20 16:54 47.566197 -122.306598 185 2513ft 143kts
24-Apr-20 16:55 47.526911 -122.306902 182 1646ft 141kts
24-Apr-20 16:56 47.487970 -122.307548 182 912ft 140kts
24-Apr-20 16:57 47.453336 -122.307953 179 423ft 48kts
24-Apr-20 16:58 47.450098 -122.307059 105 410ft 2kts
24-Apr-20 16:59 47.447524 -122.305083 83 401ft 10kts
24-Apr-20 17:00 47.445896 -122.301511 130 391ft 7kts

Navigation Log

Ident Type
Flight plan parsing failed, navigation log unavailable